sensor_id;sensor_type;location;lat;lon;timestamp;P1;durP1;ratioP1;P2;durP2;ratioP2
9958;SDS011;5019;48.012;7.812;2023-04-24T00:02:18;0.70;;;0.70;;
9958;SDS011;5019;48.012;7.812;2023-04-24T00:04:44;0.60;;;0.60;;
9958;SDS011;5019;48.012;7.812;2023-04-24T00:07:10;0.70;;;0.70;;
9958;SDS011;5019;48.012;7.812;2023-04-24T00:09:36;0.70;;;0.70;;
9958;SDS011;5019;48.012;7.812;2023-04-24T00:12:02;1.43;;;0.63;;
9958;SDS011;5019;48.012;7.812;2023-04-24T00:14:29;0.60;;;0.60;;
9958;SDS011;5019;48.012;7.812;2023-04-24T00:16:55;1.17;;;0.80;;
9958;SDS011;5019;48.012;7.812;2023-04-24T00:19:21;5.90;;;1.13;;
9958;SDS011;5019;48.012;7.812;2023-04-24T00:21:48;0.63;;;0.63;;
9958;SDS011;5019;48.012;7.812;2023-04-24T00:24:17;0.70;;;0.70;;
9958;SDS011;5019;48.012;7.812;2023-04-24T00:26:43;2.00;;;0.80;;
9958;SDS011;5019;48.012;7.812;2023-04-24T00:29:09;0.70;;;0.70;;
9958;SDS011;5019;48.012;7.812;2023-04-24T00:31:35;0.60;;;0.60;;
9958;SDS011;5019;48.012;7.812;2023-04-24T00:34:01;0.77;;;0.77;;
9958;SDS011;5019;48.012;7.812;2023-04-24T00:36:28;0.83;;;0.63;;
9958;SDS011;5019;48.012;7.812;2023-04-24T00:38:54;0.77;;;0.77;;
9958;SDS011;5019;48.012;7.812;2023-04-24T00:41:20;4.20;;;0.80;;
9958;SDS011;5019;48.012;7.812;2023-04-24T00:43:47;1.70;;;0.70;;
9958;SDS011;5019;48.012;7.812;2023-04-24T00:46:13;0.87;;;0.70;;
9958;SDS011;5019;48.012;7.812;2023-04-24T00:48:39;1.10;;;0.70;;
9958;SDS011;5019;48.012;7.812;2023-04-24T00:51:06;0.60;;;0.60;;
9958;SDS011;5019;48.012;7.812;2023-04-24T00:53:32;0.70;;;0.70;;
9958;SDS011;5019;48.012;7.812;2023-04-24T00:55:58;0.80;;;0.70;;
9958;SDS011;5019;48.012;7.812;2023-04-24T00:58:25;2.33;;;0.73;;
9958;SDS011;5019;48.012;7.812;2023-04-24T01:00:51;0.90;;;0.60;;
9958;SDS011;5019;48.012;7.812;2023-04-24T01:03:20;0.60;;;0.60;;
9958;SDS011;5019;48.012;7.812;2023-04-24T01:05:48;2.27;;;0.80;;
9958;SDS011;5019;48.012;7.812;2023-04-24T01:08:15;0.80;;;0.80;;
9958;SDS011;5019;48.012;7.812;2023-04-24T01:10:41;0.53;;;0.53;;
9958;SDS011;5019;48.012;7.812;2023-04-24T01:13:07;0.70;;;0.70;;
9958;SDS011;5019;48.012;7.812;2023-04-24T01:15:34;0.60;;;0.60;;
9958;SDS011;5019;48.012;7.812;2023-04-24T01:18:00;0.80;;;0.80;;
9958;SDS011;5019;48.012;7.812;2023-04-24T01:20:26;0.60;;;0.60;;
9958;SDS011;5019;48.012;7.812;2023-04-24T01:22:54;0.60;;;0.60;;
9958;SDS011;5019;48.012;7.812;2023-04-24T01:25:21;0.80;;;0.80;;
9958;SDS011;5019;48.012;7.812;2023-04-24T01:27:47;0.93;;;0.60;;
9958;SDS011;5019;48.012;7.812;2023-04-24T01:30:13;1.13;;;0.70;;
9958;SDS011;5019;48.012;7.812;2023-04-24T01:32:40;0.60;;;0.60;;
9958;SDS011;5019;48.012;7.812;2023-04-24T01:35:06;0.53;;;0.53;;
9958;SDS011;5019;48.012;7.812;2023-04-24T01:37:32;0.83;;;0.70;;
9958;SDS011;5019;48.012;7.812;2023-04-24T01:39:59;0.70;;;0.60;;
9958;SDS011;5019;48.012;7.812;2023-04-24T01:42:25;0.70;;;0.70;;
9958;SDS011;5019;48.012;7.812;2023-04-24T01:44:51;0.67;;;0.67;;
9958;SDS011;5019;48.012;7.812;2023-04-24T01:47:17;1.27;;;0.80;;
9958;SDS011;5019;48.012;7.812;2023-04-24T01:49:43;0.70;;;0.70;;
9958;SDS011;5019;48.012;7.812;2023-04-24T01:52:10;0.90;;;0.80;;
9958;SDS011;5019;48.012;7.812;2023-04-24T01:54:36;0.83;;;0.80;;
9958;SDS011;5019;48.012;7.812;2023-04-24T01:57:01;0.70;;;0.60;;
9958;SDS011;5019;48.012;7.812;2023-04-24T01:59:28;0.90;;;0.77;;
9958;SDS011;5019;48.012;7.812;2023-04-24T02:01:54;0.60;;;0.60;;
9958;SDS011;5019;48.012;7.812;2023-04-24T02:04:20;0.80;;;0.70;;
9958;SDS011;5019;48.012;7.812;2023-04-24T02:06:46;2.27;;;1.00;;
9958;SDS011;5019;48.012;7.812;2023-04-24T02:09:12;0.60;;;0.60;;
9958;SDS011;5019;48.012;7.812;2023-04-24T02:11:38;2.00;;;1.00;;
9958;SDS011;5019;48.012;7.812;2023-04-24T02:14:04;1.60;;;0.67;;
9958;SDS011;5019;48.012;7.812;2023-04-24T02:16:30;1.20;;;0.70;;
9958;SDS011;5019;48.012;7.812;2023-04-24T02:18:57;0.73;;;0.70;;
9958;SDS011;5019;48.012;7.812;2023-04-24T02:21:23;1.47;;;0.70;;
9958;SDS011;5019;48.012;7.812;2023-04-24T02:23:50;3.43;;;0.70;;
9958;SDS011;5019;48.012;7.812;2023-04-24T02:26:16;0.77;;;0.77;;
9958;SDS011;5019;48.012;7.812;2023-04-24T02:28:42;0.70;;;0.70;;
9958;SDS011;5019;48.012;7.812;2023-04-24T02:31:08;1.90;;;0.60;;
9958;SDS011;5019;48.012;7.812;2023-04-24T02:33:34;0.70;;;0.70;;
9958;SDS011;5019;48.012;7.812;2023-04-24T02:36:01;0.87;;;0.73;;
9958;SDS011;5019;48.012;7.812;2023-04-24T02:38:27;0.63;;;0.63;;
9958;SDS011;5019;48.012;7.812;2023-04-24T02:40:53;0.90;;;0.90;;
9958;SDS011;5019;48.012;7.812;2023-04-24T02:43:19;0.80;;;0.60;;
9958;SDS011;5019;48.012;7.812;2023-04-24T02:45:45;0.60;;;0.60;;
9958;SDS011;5019;48.012;7.812;2023-04-24T02:48:11;0.63;;;0.63;;
9958;SDS011;5019;48.012;7.812;2023-04-24T02:50:37;0.70;;;0.70;;
9958;SDS011;5019;48.012;7.812;2023-04-24T02:53:04;1.37;;;0.80;;
9958;SDS011;5019;48.012;7.812;2023-04-24T02:55:30;0.60;;;0.60;;
9958;SDS011;5019;48.012;7.812;2023-04-24T02:57:56;0.60;;;0.60;;
9958;SDS011;5019;48.012;7.812;2023-04-24T03:00:22;1.23;;;0.70;;
9958;SDS011;5019;48.012;7.812;2023-04-24T03:02:48;0.93;;;0.80;;
9958;SDS011;5019;48.012;7.812;2023-04-24T03:05:14;0.50;;;0.50;;
9958;SDS011;5019;48.012;7.812;2023-04-24T03:07:40;1.23;;;0.83;;
9958;SDS011;5019;48.012;7.812;2023-04-24T03:10:07;1.17;;;0.90;;
9958;SDS011;5019;48.012;7.812;2023-04-24T03:12:33;0.90;;;0.90;;
9958;SDS011;5019;48.012;7.812;2023-04-24T03:14:59;1.60;;;0.80;;
9958;SDS011;5019;48.012;7.812;2023-04-24T03:17:25;1.27;;;0.70;;
9958;SDS011;5019;48.012;7.812;2023-04-24T03:19:51;1.17;;;0.70;;
9958;SDS011;5019;48.012;7.812;2023-04-24T03:22:17;0.70;;;0.70;;
9958;SDS011;5019;48.012;7.812;2023-04-24T03:24:43;1.27;;;1.00;;
9958;SDS011;5019;48.012;7.812;2023-04-24T03:27:09;0.70;;;0.70;;
9958;SDS011;5019;48.012;7.812;2023-04-24T03:29:35;1.60;;;0.70;;
9958;SDS011;5019;48.012;7.812;2023-04-24T03:32:00;0.60;;;0.60;;
9958;SDS011;5019;48.012;7.812;2023-04-24T03:34:26;1.03;;;0.80;;
9958;SDS011;5019;48.012;7.812;2023-04-24T03:36:53;3.80;;;0.70;;
9958;SDS011;5019;48.012;7.812;2023-04-24T03:39:19;0.70;;;0.70;;
9958;SDS011;5019;48.012;7.812;2023-04-24T03:41:44;0.70;;;0.70;;
9958;SDS011;5019;48.012;7.812;2023-04-24T03:44:10;0.60;;;0.60;;
9958;SDS011;5019;48.012;7.812;2023-04-24T03:46:36;1.13;;;0.80;;
9958;SDS011;5019;48.012;7.812;2023-04-24T03:49:02;1.03;;;0.80;;
9958;SDS011;5019;48.012;7.812;2023-04-24T03:51:28;0.60;;;0.60;;
9958;SDS011;5019;48.012;7.812;2023-04-24T03:53:56;0.70;;;0.70;;
9958;SDS011;5019;48.012;7.812;2023-04-24T03:56:22;1.57;;;0.60;;
9958;SDS011;5019;48.012;7.812;2023-04-24T03:58:48;0.70;;;0.70;;
9958;SDS011;5019;48.012;7.812;2023-04-24T04:01:14;2.33;;;1.03;;
9958;SDS011;5019;48.012;7.812;2023-04-24T04:03:41;1.77;;;0.80;;
9958;SDS011;5019;48.012;7.812;2023-04-24T04:06:07;0.60;;;0.60;;
9958;SDS011;5019;48.012;7.812;2023-04-24T04:08:33;1.20;;;0.70;;
9958;SDS011;5019;48.012;7.812;2023-04-24T04:10:59;2.30;;;1.07;;
9958;SDS011;5019;48.012;7.812;2023-04-24T04:13:25;0.60;;;0.60;;
9958;SDS011;5019;48.012;7.812;2023-04-24T04:15:51;1.23;;;0.90;;
9958;SDS011;5019;48.012;7.812;2023-04-24T04:18:17;1.20;;;0.97;;
9958;SDS011;5019;48.012;7.812;2023-04-24T04:20:43;1.37;;;1.03;;
9958;SDS011;5019;48.012;7.812;2023-04-24T04:23:09;0.80;;;0.80;;
9958;SDS011;5019;48.012;7.812;2023-04-24T04:25:35;1.10;;;1.00;;
9958;SDS011;5019;48.012;7.812;2023-04-24T04:28:01;0.90;;;0.90;;
9958;SDS011;5019;48.012;7.812;2023-04-24T04:30:27;1.23;;;0.90;;
9958;SDS011;5019;48.012;7.812;2023-04-24T04:32:57;3.80;;;0.90;;
9958;SDS011;5019;48.012;7.812;2023-04-24T04:35:23;0.80;;;0.80;;
9958;SDS011;5019;48.012;7.812;2023-04-24T04:37:49;3.03;;;1.30;;
9958;SDS011;5019;48.012;7.812;2023-04-24T04:40:16;1.63;;;0.83;;
9958;SDS011;5019;48.012;7.812;2023-04-24T04:42:42;0.70;;;0.70;;
9958;SDS011;5019;48.012;7.812;2023-04-24T04:45:10;1.10;;;1.10;;
9958;SDS011;5019;48.012;7.812;2023-04-24T04:47:37;1.10;;;1.00;;
9958;SDS011;5019;48.012;7.812;2023-04-24T04:50:03;0.90;;;0.90;;
9958;SDS011;5019;48.012;7.812;2023-04-24T04:52:30;1.27;;;0.90;;
9958;SDS011;5019;48.012;7.812;2023-04-24T04:54:56;2.20;;;1.10;;
9958;SDS011;5019;48.012;7.812;2023-04-24T04:57:22;0.83;;;0.83;;
9958;SDS011;5019;48.012;7.812;2023-04-24T04:59:48;1.77;;;1.20;;
9958;SDS011;5019;48.012;7.812;2023-04-24T05:02:14;2.13;;;1.40;;
9958;SDS011;5019;48.012;7.812;2023-04-24T05:04:40;1.23;;;1.00;;
9958;SDS011;5019;48.012;7.812;2023-04-24T05:07:06;2.33;;;1.13;;
9958;SDS011;5019;48.012;7.812;2023-04-24T05:09:32;2.03;;;1.00;;
9958;SDS011;5019;48.012;7.812;2023-04-24T05:11:58;0.80;;;0.80;;
9958;SDS011;5019;48.012;7.812;2023-04-24T05:14:24;4.40;;;1.20;;
9958;SDS011;5019;48.012;7.812;2023-04-24T05:16:50;0.83;;;0.80;;
9958;SDS011;5019;48.012;7.812;2023-04-24T05:19:16;2.10;;;1.33;;
9958;SDS011;5019;48.012;7.812;2023-04-24T05:21:42;0.80;;;0.80;;
9958;SDS011;5019;48.012;7.812;2023-04-24T05:24:08;1.60;;;1.50;;
9958;SDS011;5019;48.012;7.812;2023-04-24T05:26:34;1.90;;;1.10;;
9958;SDS011;5019;48.012;7.812;2023-04-24T05:29:00;2.20;;;1.33;;
9958;SDS011;5019;48.012;7.812;2023-04-24T05:31:27;1.93;;;1.33;;
9958;SDS011;5019;48.012;7.812;2023-04-24T05:33:53;1.40;;;1.30;;
9958;SDS011;5019;48.012;7.812;2023-04-24T05:36:19;1.20;;;1.00;;
9958;SDS011;5019;48.012;7.812;2023-04-24T05:38:45;1.57;;;1.47;;
9958;SDS011;5019;48.012;7.812;2023-04-24T05:41:10;1.00;;;1.00;;
9958;SDS011;5019;48.012;7.812;2023-04-24T05:43:36;1.20;;;1.10;;
9958;SDS011;5019;48.012;7.812;2023-04-24T05:46:02;1.97;;;1.13;;
9958;SDS011;5019;48.012;7.812;2023-04-24T05:48:28;1.93;;;0.97;;
9958;SDS011;5019;48.012;7.812;2023-04-24T05:50:55;1.40;;;1.30;;
9958;SDS011;5019;48.012;7.812;2023-04-24T05:53:21;1.40;;;1.30;;
9958;SDS011;5019;48.012;7.812;2023-04-24T05:55:47;1.40;;;1.30;;
9958;SDS011;5019;48.012;7.812;2023-04-24T05:58:13;1.60;;;1.50;;
9958;SDS011;5019;48.012;7.812;2023-04-24T06:00:40;1.57;;;1.47;;
9958;SDS011;5019;48.012;7.812;2023-04-24T06:03:07;6.10;;;1.20;;
9958;SDS011;5019;48.012;7.812;2023-04-24T06:05:33;1.27;;;1.17;;
9958;SDS011;5019;48.012;7.812;2023-04-24T06:08:00;1.40;;;1.30;;
9958;SDS011;5019;48.012;7.812;2023-04-24T06:10:26;5.07;;;2.03;;
9958;SDS011;5019;48.012;7.812;2023-04-24T06:12:52;1.73;;;1.63;;
9958;SDS011;5019;48.012;7.812;2023-04-24T06:15:21;1.30;;;1.10;;
9958;SDS011;5019;48.012;7.812;2023-04-24T06:17:47;3.07;;;2.10;;
9958;SDS011;5019;48.012;7.812;2023-04-24T06:20:13;1.50;;;1.40;;
9958;SDS011;5019;48.012;7.812;2023-04-24T06:22:40;1.27;;;1.20;;
9958;SDS011;5019;48.012;7.812;2023-04-24T06:25:06;1.57;;;1.43;;
9958;SDS011;5019;48.012;7.812;2023-04-24T06:27:32;1.23;;;1.13;;
9958;SDS011;5019;48.012;7.812;2023-04-24T06:29:58;1.63;;;1.30;;
9958;SDS011;5019;48.012;7.812;2023-04-24T06:32:24;5.60;;;1.40;;
9958;SDS011;5019;48.012;7.812;2023-04-24T06:34:52;1.60;;;1.40;;
9958;SDS011;5019;48.012;7.812;2023-04-24T06:37:18;1.47;;;1.37;;
9958;SDS011;5019;48.012;7.812;2023-04-24T06:39:45;2.87;;;1.90;;
9958;SDS011;5019;48.012;7.812;2023-04-24T06:42:11;3.10;;;1.47;;
9958;SDS011;5019;48.012;7.812;2023-04-24T06:44:37;1.37;;;1.30;;
9958;SDS011;5019;48.012;7.812;2023-04-24T06:47:05;1.53;;;1.33;;
9958;SDS011;5019;48.012;7.812;2023-04-24T06:49:32;5.40;;;1.83;;
9958;SDS011;5019;48.012;7.812;2023-04-24T06:51:58;3.20;;;1.77;;
9958;SDS011;5019;48.012;7.812;2023-04-24T06:54:24;2.87;;;1.60;;
9958;SDS011;5019;48.012;7.812;2023-04-24T06:56:50;3.10;;;1.50;;
9958;SDS011;5019;48.012;7.812;2023-04-24T06:59:17;1.40;;;1.30;;
9958;SDS011;5019;48.012;7.812;2023-04-24T07:01:43;1.80;;;1.47;;
9958;SDS011;5019;48.012;7.812;2023-04-24T07:04:09;3.37;;;2.00;;
9958;SDS011;5019;48.012;7.812;2023-04-24T07:06:35;2.00;;;1.00;;
9958;SDS011;5019;48.012;7.812;2023-04-24T07:09:02;2.50;;;1.80;;
9958;SDS011;5019;48.012;7.812;2023-04-24T07:11:28;1.60;;;1.33;;
9958;SDS011;5019;48.012;7.812;2023-04-24T07:13:54;2.30;;;1.30;;
9958;SDS011;5019;48.012;7.812;2023-04-24T07:16:20;1.63;;;1.30;;
9958;SDS011;5019;48.012;7.812;2023-04-24T07:18:46;1.10;;;1.10;;
9958;SDS011;5019;48.012;7.812;2023-04-24T07:21:12;1.50;;;1.40;;
9958;SDS011;5019;48.012;7.812;2023-04-24T07:23:38;1.93;;;1.20;;
9958;SDS011;5019;48.012;7.812;2023-04-24T07:26:06;1.43;;;1.33;;
9958;SDS011;5019;48.012;7.812;2023-04-24T07:28:32;1.17;;;1.07;;
9958;SDS011;5019;48.012;7.812;2023-04-24T07:30:58;1.50;;;1.40;;
9958;SDS011;5019;48.012;7.812;2023-04-24T07:33:25;1.70;;;1.60;;
9958;SDS011;5019;48.012;7.812;2023-04-24T07:35:50;1.27;;;1.03;;
9958;SDS011;5019;48.012;7.812;2023-04-24T07:38:17;1.50;;;1.40;;
9958;SDS011;5019;48.012;7.812;2023-04-24T07:40:46;2.00;;;1.10;;
9958;SDS011;5019;48.012;7.812;2023-04-24T07:43:12;1.43;;;1.33;;
9958;SDS011;5019;48.012;7.812;2023-04-24T07:45:38;3.43;;;1.40;;
9958;SDS011;5019;48.012;7.812;2023-04-24T07:48:04;6.40;;;1.40;;
9958;SDS011;5019;48.012;7.812;2023-04-24T07:50:30;1.83;;;1.53;;
9958;SDS011;5019;48.012;7.812;2023-04-24T07:52:56;1.43;;;1.33;;
9958;SDS011;5019;48.012;7.812;2023-04-24T07:55:22;2.50;;;1.20;;
9958;SDS011;5019;48.012;7.812;2023-04-24T07:57:48;1.27;;;1.00;;
9958;SDS011;5019;48.012;7.812;2023-04-24T08:00:15;1.43;;;1.30;;
9958;SDS011;5019;48.012;7.812;2023-04-24T08:02:41;3.27;;;1.37;;
9958;SDS011;5019;48.012;7.812;2023-04-24T08:05:07;1.90;;;1.70;;
9958;SDS011;5019;48.012;7.812;2023-04-24T08:07:33;1.70;;;1.60;;
9958;SDS011;5019;48.012;7.812;2023-04-24T08:10:00;1.60;;;1.40;;
9958;SDS011;5019;48.012;7.812;2023-04-24T08:12:27;2.03;;;1.87;;
9958;SDS011;5019;48.012;7.812;2023-04-24T08:14:54;1.83;;;1.73;;
9958;SDS011;5019;48.012;7.812;2023-04-24T08:17:20;2.43;;;1.63;;
9958;SDS011;5019;48.012;7.812;2023-04-24T08:19:46;1.60;;;1.50;;
9958;SDS011;5019;48.012;7.812;2023-04-24T08:22:16;3.53;;;1.60;;
9958;SDS011;5019;48.012;7.812;2023-04-24T08:24:42;1.60;;;1.50;;
9958;SDS011;5019;48.012;7.812;2023-04-24T08:27:08;1.60;;;1.50;;
9958;SDS011;5019;48.012;7.812;2023-04-24T08:29:35;1.53;;;1.43;;
9958;SDS011;5019;48.012;7.812;2023-04-24T08:32:01;2.83;;;1.53;;
9958;SDS011;5019;48.012;7.812;2023-04-24T08:34:27;1.40;;;1.30;;
9958;SDS011;5019;48.012;7.812;2023-04-24T08:36:53;1.57;;;1.20;;
9958;SDS011;5019;48.012;7.812;2023-04-24T08:39:19;1.30;;;1.20;;
9958;SDS011;5019;48.012;7.812;2023-04-24T08:41:45;1.23;;;1.13;;
9958;SDS011;5019;48.012;7.812;2023-04-24T08:44:14;12.93;;;1.53;;
9958;SDS011;5019;48.012;7.812;2023-04-24T08:46:42;2.40;;;1.00;;
9958;SDS011;5019;48.012;7.812;2023-04-24T08:49:09;2.40;;;1.13;;
9958;SDS011;5019;48.012;7.812;2023-04-24T08:51:36;1.37;;;1.30;;
9958;SDS011;5019;48.012;7.812;2023-04-24T08:54:02;6.93;;;1.70;;
9958;SDS011;5019;48.012;7.812;2023-04-24T08:56:29;4.23;;;1.67;;
9958;SDS011;5019;48.012;7.812;2023-04-24T08:58:56;1.37;;;1.07;;
9958;SDS011;5019;48.012;7.812;2023-04-24T09:01:22;1.30;;;1.20;;
9958;SDS011;5019;48.012;7.812;2023-04-24T09:03:49;1.00;;;1.00;;
9958;SDS011;5019;48.012;7.812;2023-04-24T09:06:16;1.33;;;1.23;;
9958;SDS011;5019;48.012;7.812;2023-04-24T09:08:43;1.10;;;1.00;;
9958;SDS011;5019;48.012;7.812;2023-04-24T09:11:10;1.73;;;1.30;;
9958;SDS011;5019;48.012;7.812;2023-04-24T09:13:37;1.20;;;1.10;;
9958;SDS011;5019;48.012;7.812;2023-04-24T09:16:03;0.97;;;0.97;;
9958;SDS011;5019;48.012;7.812;2023-04-24T09:18:29;1.70;;;1.60;;
9958;SDS011;5019;48.012;7.812;2023-04-24T09:21:02;1.10;;;1.00;;
9958;SDS011;5019;48.012;7.812;2023-04-24T09:23:30;2.97;;;1.13;;
9958;SDS011;5019;48.012;7.812;2023-04-24T09:25:56;2.80;;;0.87;;
9958;SDS011;5019;48.012;7.812;2023-04-24T09:28:30;2.90;;;1.10;;
9958;SDS011;5019;48.012;7.812;2023-04-24T09:31:09;1.00;;;1.00;;
9958;SDS011;5019;48.012;7.812;2023-04-24T09:33:35;1.13;;;1.00;;
9958;SDS011;5019;48.012;7.812;2023-04-24T09:36:02;1.03;;;0.97;;
9958;SDS011;5019;48.012;7.812;2023-04-24T09:38:35;1.47;;;1.40;;
9958;SDS011;5019;48.012;7.812;2023-04-24T09:41:02;0.90;;;0.90;;
9958;SDS011;5019;48.012;7.812;2023-04-24T09:43:29;1.23;;;1.13;;
9958;SDS011;5019;48.012;7.812;2023-04-24T09:45:55;1.10;;;1.00;;
9958;SDS011;5019;48.012;7.812;2023-04-24T09:48:32;1.10;;;1.10;;
9958;SDS011;5019;48.012;7.812;2023-04-24T09:50:58;0.90;;;0.90;;
9958;SDS011;5019;48.012;7.812;2023-04-24T09:53:24;4.33;;;1.20;;
9958;SDS011;5019;48.012;7.812;2023-04-24T09:55:51;1.30;;;1.00;;
9958;SDS011;5019;48.012;7.812;2023-04-24T09:58:18;1.50;;;1.33;;
9958;SDS011;5019;48.012;7.812;2023-04-24T10:00:44;1.00;;;1.00;;
9958;SDS011;5019;48.012;7.812;2023-04-24T10:03:11;0.80;;;0.80;;
9958;SDS011;5019;48.012;7.812;2023-04-24T10:05:37;1.07;;;1.03;;
9958;SDS011;5019;48.012;7.812;2023-04-24T10:08:04;0.80;;;0.80;;
9958;SDS011;5019;48.012;7.812;2023-04-24T10:10:31;0.80;;;0.80;;
9958;SDS011;5019;48.012;7.812;2023-04-24T10:12:58;3.37;;;0.80;;
9958;SDS011;5019;48.012;7.812;2023-04-24T10:15:25;3.00;;;1.00;;
9958;SDS011;5019;48.012;7.812;2023-04-24T10:17:52;0.97;;;0.70;;
9958;SDS011;5019;48.012;7.812;2023-04-24T10:20:22;1.00;;;0.80;;
9958;SDS011;5019;48.012;7.812;2023-04-24T10:22:49;0.80;;;0.80;;
9958;SDS011;5019;48.012;7.812;2023-04-24T10:25:16;0.67;;;0.67;;
9958;SDS011;5019;48.012;7.812;2023-04-24T10:27:43;0.80;;;0.80;;
9958;SDS011;5019;48.012;7.812;2023-04-24T10:30:11;1.43;;;0.90;;
9958;SDS011;5019;48.012;7.812;2023-04-24T10:32:37;0.80;;;0.80;;
9958;SDS011;5019;48.012;7.812;2023-04-24T10:35:04;1.20;;;0.80;;
9958;SDS011;5019;48.012;7.812;2023-04-24T10:37:35;0.97;;;0.93;;
9958;SDS011;5019;48.012;7.812;2023-04-24T10:40:02;0.70;;;0.70;;
9958;SDS011;5019;48.012;7.812;2023-04-24T10:42:28;0.97;;;0.87;;
9958;SDS011;5019;48.012;7.812;2023-04-24T10:44:54;0.77;;;0.77;;
9958;SDS011;5019;48.012;7.812;2023-04-24T10:47:22;0.70;;;0.70;;
9958;SDS011;5019;48.012;7.812;2023-04-24T10:49:50;1.27;;;0.70;;
9958;SDS011;5019;48.012;7.812;2023-04-24T10:52:17;0.93;;;0.93;;
9958;SDS011;5019;48.012;7.812;2023-04-24T10:54:46;1.00;;;1.00;;
9958;SDS011;5019;48.012;7.812;2023-04-24T10:59:45;1.80;;;1.03;;
9958;SDS011;5019;48.012;7.812;2023-04-24T11:02:11;0.90;;;0.90;;
9958;SDS011;5019;48.012;7.812;2023-04-24T11:04:40;1.43;;;1.00;;
9958;SDS011;5019;48.012;7.812;2023-04-24T11:07:08;1.20;;;1.10;;
9958;SDS011;5019;48.012;7.812;2023-04-24T11:09:34;2.20;;;1.27;;
9958;SDS011;5019;48.012;7.812;2023-04-24T11:12:05;1.17;;;1.00;;
9958;SDS011;5019;48.012;7.812;2023-04-24T11:17:33;2.60;;;1.57;;
9958;SDS011;5019;48.012;7.812;2023-04-24T11:22:32;0.80;;;0.80;;
9958;SDS011;5019;48.012;7.812;2023-04-24T11:25:00;1.43;;;1.00;;
9958;SDS011;5019;48.012;7.812;2023-04-24T11:27:30;0.90;;;0.90;;
9958;SDS011;5019;48.012;7.812;2023-04-24T11:30:00;1.13;;;0.80;;
9958;SDS011;5019;48.012;7.812;2023-04-24T11:34:53;3.37;;;1.00;;
9958;SDS011;5019;48.012;7.812;2023-04-24T11:37:21;1.37;;;1.07;;
9958;SDS011;5019;48.012;7.812;2023-04-24T11:39:49;0.77;;;0.77;;
9958;SDS011;5019;48.012;7.812;2023-04-24T11:42:15;1.10;;;1.00;;
9958;SDS011;5019;48.012;7.812;2023-04-24T11:44:42;1.63;;;1.10;;
9958;SDS011;5019;48.012;7.812;2023-04-24T11:47:08;1.73;;;1.20;;
9958;SDS011;5019;48.012;7.812;2023-04-24T11:49:37;1.10;;;1.00;;
9958;SDS011;5019;48.012;7.812;2023-04-24T11:52:03;1.40;;;1.30;;
9958;SDS011;5019;48.012;7.812;2023-04-24T11:54:29;3.37;;;1.10;;
9958;SDS011;5019;48.012;7.812;2023-04-24T11:56:55;1.23;;;1.10;;
9958;SDS011;5019;48.012;7.812;2023-04-24T11:59:21;0.90;;;0.80;;
9958;SDS011;5019;48.012;7.812;2023-04-24T12:01:48;1.00;;;0.90;;
9958;SDS011;5019;48.012;7.812;2023-04-24T12:04:15;1.03;;;0.93;;
9958;SDS011;5019;48.012;7.812;2023-04-24T12:07:02;1.30;;;1.20;;
9958;SDS011;5019;48.012;7.812;2023-04-24T12:09:27;1.53;;;1.10;;
9958;SDS011;5019;48.012;7.812;2023-04-24T12:14:58;0.97;;;0.80;;
9958;SDS011;5019;48.012;7.812;2023-04-24T12:17:28;2.40;;;0.80;;
9958;SDS011;5019;48.012;7.812;2023-04-24T12:20:05;1.53;;;0.90;;
9958;SDS011;5019;48.012;7.812;2023-04-24T12:22:47;1.27;;;1.17;;
9958;SDS011;5019;48.012;7.812;2023-04-24T12:25:14;0.83;;;0.80;;
9958;SDS011;5019;48.012;7.812;2023-04-24T12:27:40;2.93;;;1.13;;
9958;SDS011;5019;48.012;7.812;2023-04-24T12:30:10;0.90;;;0.90;;
9958;SDS011;5019;48.012;7.812;2023-04-24T12:36:14;3.67;;;1.13;;
9958;SDS011;5019;48.012;7.812;2023-04-24T12:38:43;2.20;;;1.20;;
9958;SDS011;5019;48.012;7.812;2023-04-24T12:41:11;1.27;;;1.17;;
9958;SDS011;5019;48.012;7.812;2023-04-24T12:43:37;1.47;;;1.23;;
9958;SDS011;5019;48.012;7.812;2023-04-24T12:46:03;1.90;;;1.00;;
9958;SDS011;5019;48.012;7.812;2023-04-24T12:48:29;0.90;;;0.90;;
9958;SDS011;5019;48.012;7.812;2023-04-24T12:50:59;0.80;;;0.80;;
9958;SDS011;5019;48.012;7.812;2023-04-24T12:53:28;0.80;;;0.80;;
9958;SDS011;5019;48.012;7.812;2023-04-24T12:55:56;2.40;;;1.30;;
9958;SDS011;5019;48.012;7.812;2023-04-24T12:58:22;2.80;;;1.50;;
9958;SDS011;5019;48.012;7.812;2023-04-24T13:00:48;1.13;;;1.00;;
9958;SDS011;5019;48.012;7.812;2023-04-24T13:03:14;0.90;;;0.90;;
9958;SDS011;5019;48.012;7.812;2023-04-24T13:05:41;1.33;;;1.13;;
9958;SDS011;5019;48.012;7.812;2023-04-24T13:08:07;0.93;;;0.80;;
9958;SDS011;5019;48.012;7.812;2023-04-24T13:10:33;1.03;;;0.93;;
9958;SDS011;5019;48.012;7.812;2023-04-24T13:12:59;2.20;;;1.17;;
9958;SDS011;5019;48.012;7.812;2023-04-24T13:15:25;1.10;;;1.00;;
9958;SDS011;5019;48.012;7.812;2023-04-24T13:17:51;1.70;;;1.23;;
9958;SDS011;5019;48.012;7.812;2023-04-24T13:20:17;2.00;;;1.07;;
9958;SDS011;5019;48.012;7.812;2023-04-24T13:22:43;1.23;;;1.13;;
9958;SDS011;5019;48.012;7.812;2023-04-24T13:25:09;0.77;;;0.77;;
9958;SDS011;5019;48.012;7.812;2023-04-24T13:27:37;1.33;;;1.00;;
9958;SDS011;5019;48.012;7.812;2023-04-24T13:30:04;1.50;;;0.83;;
9958;SDS011;5019;48.012;7.812;2023-04-24T13:32:31;1.97;;;1.13;;
9958;SDS011;5019;48.012;7.812;2023-04-24T13:34:58;1.10;;;1.00;;
9958;SDS011;5019;48.012;7.812;2023-04-24T13:37:24;0.80;;;0.80;;
9958;SDS011;5019;48.012;7.812;2023-04-24T13:39:50;2.57;;;1.17;;
9958;SDS011;5019;48.012;7.812;2023-04-24T13:42:16;1.10;;;1.03;;
9958;SDS011;5019;48.012;7.812;2023-04-24T13:44:43;2.07;;;0.90;;
9958;SDS011;5019;48.012;7.812;2023-04-24T13:47:09;1.23;;;1.13;;
9958;SDS011;5019;48.012;7.812;2023-04-24T13:49:35;1.00;;;1.00;;
9958;SDS011;5019;48.012;7.812;2023-04-24T13:52:01;2.33;;;1.30;;
9958;SDS011;5019;48.012;7.812;2023-04-24T13:54:27;1.40;;;1.30;;
9958;SDS011;5019;48.012;7.812;2023-04-24T13:56:55;1.40;;;1.30;;
9958;SDS011;5019;48.012;7.812;2023-04-24T13:59:21;4.10;;;1.43;;
9958;SDS011;5019;48.012;7.812;2023-04-24T14:01:47;0.90;;;0.90;;
9958;SDS011;5019;48.012;7.812;2023-04-24T14:04:13;1.10;;;1.10;;
9958;SDS011;5019;48.012;7.812;2023-04-24T14:06:39;1.37;;;1.13;;
9958;SDS011;5019;48.012;7.812;2023-04-24T14:09:06;1.97;;;1.00;;
9958;SDS011;5019;48.012;7.812;2023-04-24T14:11:32;1.20;;;1.10;;
9958;SDS011;5019;48.012;7.812;2023-04-24T14:13:58;1.80;;;1.40;;
9958;SDS011;5019;48.012;7.812;2023-04-24T14:16:25;1.50;;;1.17;;
9958;SDS011;5019;48.012;7.812;2023-04-24T14:18:51;1.00;;;0.87;;
9958;SDS011;5019;48.012;7.812;2023-04-24T14:21:16;1.93;;;1.40;;
9958;SDS011;5019;48.012;7.812;2023-04-24T14:23:42;1.07;;;1.00;;
9958;SDS011;5019;48.012;7.812;2023-04-24T14:26:09;1.47;;;1.37;;
9958;SDS011;5019;48.012;7.812;2023-04-24T14:28:35;2.93;;;1.43;;
9958;SDS011;5019;48.012;7.812;2023-04-24T14:31:01;0.90;;;0.90;;
9958;SDS011;5019;48.012;7.812;2023-04-24T14:33:27;1.40;;;1.23;;
9958;SDS011;5019;48.012;7.812;2023-04-24T14:35:53;0.93;;;0.90;;
9958;SDS011;5019;48.012;7.812;2023-04-24T14:38:19;1.43;;;1.20;;
9958;SDS011;5019;48.012;7.812;2023-04-24T14:40:45;1.37;;;0.90;;
9958;SDS011;5019;48.012;7.812;2023-04-24T14:43:11;1.37;;;1.10;;
9958;SDS011;5019;48.012;7.812;2023-04-24T14:45:37;1.37;;;1.17;;
9958;SDS011;5019;48.012;7.812;2023-04-24T14:48:05;1.20;;;0.90;;
9958;SDS011;5019;48.012;7.812;2023-04-24T14:50:31;1.43;;;1.03;;
9958;SDS011;5019;48.012;7.812;2023-04-24T14:52:57;1.07;;;0.93;;
9958;SDS011;5019;48.012;7.812;2023-04-24T14:55:23;1.97;;;1.30;;
9958;SDS011;5019;48.012;7.812;2023-04-24T14:57:50;1.50;;;1.40;;
9958;SDS011;5019;48.012;7.812;2023-04-24T15:00:16;4.20;;;1.60;;
9958;SDS011;5019;48.012;7.812;2023-04-24T15:02:42;1.37;;;1.27;;
9958;SDS011;5019;48.012;7.812;2023-04-24T15:05:09;2.50;;;1.30;;
9958;SDS011;5019;48.012;7.812;2023-04-24T15:07:36;1.00;;;0.97;;
9958;SDS011;5019;48.012;7.812;2023-04-24T15:10:02;1.80;;;1.40;;
9958;SDS011;5019;48.012;7.812;2023-04-24T15:12:28;3.80;;;1.50;;
9958;SDS011;5019;48.012;7.812;2023-04-24T15:14:54;3.13;;;1.60;;
9958;SDS011;5019;48.012;7.812;2023-04-24T15:17:20;7.03;;;1.87;;
9958;SDS011;5019;48.012;7.812;2023-04-24T15:19:46;1.30;;;1.20;;
9958;SDS011;5019;48.012;7.812;2023-04-24T15:22:12;1.10;;;1.10;;
9958;SDS011;5019;48.012;7.812;2023-04-24T15:24:38;4.00;;;1.57;;
9958;SDS011;5019;48.012;7.812;2023-04-24T15:27:04;1.60;;;1.37;;
9958;SDS011;5019;48.012;7.812;2023-04-24T15:29:30;1.30;;;1.20;;